Time;durP1;ratioP1;P1;durP2;ratioP2;P2;SDS_P1;SDS_P2;PMS_P1;PMS_P2;Temp;Humidity;BMP_temperature;BMP_pressure;BME280_temperature;BME280_humidity;BME280_pressure;Samples;Min_cycle;Max_cycle;Signal;HPM_P1;HPM_P2
2021/08/14 00:00:10;;;;;;;1.17;1.08;;;15.20;77.30;;;17.62;65.61;102133.19;3190557;30;130758;-74
2021/08/14 00:03:16;;;;;;;0.80;0.80;;;15.20;77.40;;;17.55;66.04;102130.16;3191594;30;130710;-74
2021/08/14 00:06:22;;;;;;;0.25;0.20;;;15.10;77.40;;;17.53;65.98;102132.38;3190311;30;131231;-74
2021/08/14 00:09:28;;;;;;;0.38;0.38;;;15.10;77.50;;;17.55;65.83;102122.03;3190785;38;130744;-74
2021/08/14 00:12:35;;;;;;;0.32;0.20;;;15.10;77.60;;;17.55;65.92;102108.47;3193496;38;130794;-73
2021/08/14 00:15:41;;;;;;;0.20;0.20;;;15.10;77.60;;;17.54;65.65;102096.03;3190663;38;130638;-74
2021/08/14 00:18:47;;;;;;;0.13;0.13;;;15.00;77.40;;;17.55;65.55;102110.38;3191787;30;130831;-74
2021/08/14 00:21:53;;;;;;;0.75;0.75;;;15.10;77.60;;;17.51;65.50;102107.50;3190879;30;130867;-74
2021/08/14 00:24:59;;;;;;;0.30;0.30;;;15.10;77.50;;;17.48;65.79;102108.13;3188016;38;130784;-74
2021/08/14 00:28:08;;;;;;;0.22;0.22;;;15.00;77.40;;;17.46;65.58;102096.81;3191018;30;130487;-74
2021/08/14 00:31:14;;;;;;;0.35;0.35;;;15.00;77.40;;;17.45;65.69;102094.41;3190942;38;131054;-74
2021/08/14 00:34:21;;;;;;;0.45;0.45;;;15.00;77.50;;;17.42;65.58;102089.63;3190706;38;130739;-74
2021/08/14 00:37:27;;;;;;;0.00;0.00;;;15.00;77.50;;;17.40;65.84;102106.19;3191373;38;130824;-74
2021/08/14 00:40:33;;;;;;;1.40;0.43;;;14.90;77.50;;;17.38;65.75;102111.13;3196918;38;130691;-74
2021/08/14 00:43:42;;;;;;;1.73;0.60;;;14.90;77.50;;;17.36;65.50;102107.91;3196526;30;130900;-74
2021/08/14 00:46:48;;;;;;;0.52;0.43;;;14.90;77.50;;;17.35;65.60;102100.91;3192580;30;130716;-74
2021/08/14 00:49:55;;;;;;;0.75;0.75;;;14.90;77.50;;;17.38;65.78;102099.50;3190394;38;130146;-74
2021/08/14 00:53:00;;;;;;;0.40;0.32;;;14.90;77.50;;;17.41;65.62;102096.16;3189463;38;130838;-74
2021/08/14 00:56:09;;;;;;;2.60;0.95;;;14.90;77.60;;;17.45;65.44;102097.94;3189480;38;130712;-74
2021/08/14 00:59:16;;;;;;;0.63;0.63;;;14.90;77.50;;;17.41;65.15;102091.53;3190328;30;131745;-74
2021/08/14 01:02:24;;;;;;;0.25;0.25;;;14.90;77.40;;;17.30;65.46;102083.97;3190320;38;130267;-74
2021/08/14 01:05:30;;;;;;;1.90;0.85;;;14.80;77.30;;;17.33;65.52;102086.88;3191110;38;129611;-74
2021/08/14 01:08:37;;;;;;;0.30;0.30;;;14.80;77.50;;;17.40;65.40;102079.09;3190263;38;133160;-74
2021/08/14 01:11:43;;;;;;;0.32;0.32;;;14.80;77.60;;;17.47;65.20;102084.88;3190327;30;130602;-74
2021/08/14 01:14:53;;;;;;;0.10;0.10;;;14.80;77.50;;;17.53;64.91;102083.59;3191151;38;130187;-74
2021/08/14 01:18:01;;;;;;;0.30;0.30;;;14.90;77.60;;;17.58;64.84;102079.94;3189134;38;130783;-74
2021/08/14 01:21:08;;;;;;;0.45;0.45;;;14.90;77.50;;;17.60;64.68;102089.34;3190793;30;130635;-74
2021/08/14 01:24:14;;;;;;;0.10;0.10;;;14.90;77.50;;;17.56;65.00;102082.97;3189933;30;131835;-74
2021/08/14 01:27:21;;;;;;;0.45;0.45;;;14.90;77.50;;;17.62;64.97;102092.53;3190701;30;129597;-74
2021/08/14 01:30:27;;;;;;;0.35;0.35;;;14.90;77.50;;;17.69;64.75;102092.09;3187015;38;130569;-74
2021/08/14 01:33:35;;;;;;;0.00;0.00;;;15.00;77.40;;;17.72;64.60;102086.84;3188952;38;129927;-74
2021/08/14 01:36:41;;;;;;;0.10;0.10;;;15.00;77.40;;;17.80;64.67;102075.19;3190098;38;131480;-74
2021/08/14 01:39:47;;;;;;;0.10;0.10;;;15.10;77.40;;;17.82;64.34;102070.25;3190048;38;130770;-74
2021/08/14 01:42:55;;;;;;;2.65;0.47;;;15.10;77.30;;;17.83;64.39;102066.44;3188585;38;130719;-74
2021/08/14 01:46:00;;;;;;;5.57;0.55;;;15.10;77.30;;;17.87;64.42;102063.91;3188221;38;130483;-74
2021/08/14 01:49:09;;;;;;;1.15;0.57;;;15.10;77.30;;;17.92;64.27;102058.31;3188362;38;130795;-74
2021/08/14 01:52:19;;;;;;;0.40;0.40;;;15.20;77.90;;;17.89;64.20;102053.53;3190508;38;130829;-74
2021/08/14 01:55:25;;;;;;;0.10;0.10;;;15.20;77.20;;;17.93;64.19;102046.34;3190713;38;134159;-74
2021/08/14 01:58:33;;;;;;;0.00;0.00;;;15.20;77.20;;;17.94;64.26;102051.44;3190534;30;130081;-74
2021/08/14 02:01:40;;;;;;;0.00;0.00;;;15.20;77.20;;;17.95;64.50;102042.19;3190164;38;132042;-74
2021/08/14 02:04:46;;;;;;;0.10;0.10;;;15.20;77.20;;;18.01;64.48;102045.53;3189549;38;130683;-74
2021/08/14 02:07:52;;;;;;;0.63;0.55;;;15.30;77.30;;;18.03;64.40;102044.13;3188393;38;131290;-74
2021/08/14 02:10:58;;;;;;;0.28;0.28;;;15.30;77.20;;;18.07;64.38;102044.25;3190586;38;130877;-74
2021/08/14 02:14:09;;;;;;;0.65;0.47;;;15.30;77.20;;;18.05;64.40;102052.72;3191316;30;130756;-74
2021/08/14 02:17:14;;;;;;;0.10;0.10;;;15.40;77.30;;;18.12;64.35;102047.63;3190794;30;131364;-74
2021/08/14 02:20:20;;;;;;;0.38;0.38;;;15.40;77.30;;;18.16;64.35;102050.47;3190842;38;130820;-74
2021/08/14 02:23:26;;;;;;;1.10;0.90;;;15.40;77.20;;;18.19;64.30;102056.06;3190466;30;131459;-74
2021/08/14 02:26:32;;;;;;;0.30;0.30;;;15.40;77.20;;;18.21;64.27;102040.25;3189445;38;130693;-74
2021/08/14 02:29:39;;;;;;;0.20;0.20;;;15.40;77.10;;;18.21;64.18;102031.34;3189593;30;131202;-74
2021/08/14 02:32:47;;;;;;;3.22;2.13;;;15.50;77.30;;;18.25;64.28;102037.72;3189253;38;130297;-74
2021/08/14 02:35:56;;;;;;;0.55;0.55;;;15.50;77.20;;;18.24;64.26;102034.19;3189405;38;131024;-75
2021/08/14 02:39:02;;;;;;;0.98;0.52;;;15.50;77.10;;;18.22;64.25;102049.22;3189063;30;131746;-74
2021/08/14 02:42:08;;;;;;;1.27;0.90;;;15.50;77.10;;;18.12;64.34;102044.91;3190242;30;131250;-74
2021/08/14 02:45:16;;;;;;;0.47;0.47;;;15.50;77.10;;;18.01;64.84;102034.69;3189740;38;131681;-74
2021/08/14 02:48:22;;;;;;;0.20;0.20;;;15.50;77.20;;;17.93;64.99;102036.28;3189963;38;130740;-74
2021/08/14 02:51:28;;;;;;;1.40;1.05;;;15.40;77.10;;;17.89;64.97;102040.75;3189643;38;130763;-74
2021/08/14 02:54:33;;;;;;;0.05;0.05;;;15.40;77.10;;;17.87;64.98;102039.50;3190035;30;133370;-74
2021/08/14 02:57:39;;;;;;;0.70;0.70;;;15.30;77.20;;;17.81;65.41;102036.13;3188076;30;130699;-74
2021/08/14 03:00:46;;;;;;;0.17;0.17;;;15.30;77.20;;;17.74;65.26;102041.22;3190018;38;130732;-74
2021/08/14 03:03:52;;;;;;;1.13;1.02;;;15.30;77.20;;;17.70;65.26;102039.47;3191128;30;130901;-74
2021/08/14 03:06:59;;;;;;;0.77;0.55;;;15.20;77.30;;;17.66;65.51;102042.00;3188562;38;130831;-74
2021/08/14 03:10:12;;;;;;;2.75;1.48;;;15.20;77.30;;;17.60;65.40;102042.50;3189219;38;130849;-74
2021/08/14 03:13:18;;;;;;;0.13;0.13;;;15.10;77.50;;;17.61;65.45;102030.53;3189223;38;130929;-74
2021/08/14 03:16:25;;;;;;;0.30;0.30;;;15.10;77.50;;;17.55;65.35;102026.34;3188997;38;130913;-74
2021/08/14 03:19:31;;;;;;;1.20;1.08;;;15.10;77.60;;;17.51;65.29;102023.50;3190662;38;129826;-74
2021/08/14 03:22:37;;;;;;;1.40;1.30;;;15.00;77.60;;;17.49;65.37;102023.00;3190968;38;130827;-74
2021/08/14 03:25:43;;;;;;;0.70;0.55;;;15.00;77.70;;;17.49;65.61;102028.44;3190673;38;130629;-74
2021/08/14 03:28:49;;;;;;;0.20;0.20;;;14.90;77.70;;;17.47;65.50;102022.53;3190931;30;131786;-74
2021/08/14 03:31:56;;;;;;;1.38;0.98;;;14.90;77.70;;;17.43;65.62;102016.16;3190144;30;130577;-74
2021/08/14 03:35:03;;;;;;;0.00;0.00;;;14.90;77.80;;;17.45;65.45;102022.06;3190984;30;131147;-74
2021/08/14 03:38:08;;;;;;;2.28;0.73;;;14.90;77.80;;;17.40;65.20;102013.28;3190442;30;130722;-74
2021/08/14 03:41:14;;;;;;;0.10;0.10;;;14.80;77.80;;;17.41;65.51;102020.28;3191088;38;130885;-74
2021/08/14 03:44:20;;;;;;;0.20;0.20;;;14.80;77.80;;;17.38;65.49;102024.41;3191455;30;130636;-74
2021/08/14 03:47:27;;;;;;;0.77;0.77;;;14.80;77.90;;;17.36;65.33;102023.94;3188577;38;131266;-74
2021/08/14 03:50:33;;;;;;;0.30;0.25;;;14.80;77.90;;;17.35;65.32;102011.50;3190126;38;131215;-74
2021/08/14 03:53:39;;;;;;;1.20;0.85;;;14.80;77.90;;;17.36;65.53;102010.38;3191348;38;129865;-74
2021/08/14 03:56:45;;;;;;;4.13;2.50;;;14.80;78.00;;;17.39;65.25;102007.03;3191201;30;130698;-74
2021/08/14 03:59:51;;;;;;;1.15;0.57;;;14.70;78.00;;;17.42;65.35;102006.44;3188246;38;131284;-74
2021/08/14 04:02:58;;;;;;;0.10;0.10;;;14.80;78.00;;;17.47;65.36;102014.41;3190303;30;131017;-74
2021/08/14 04:06:07;;;;;;;0.22;0.22;;;14.80;78.00;;;17.49;65.02;102012.19;3188178;38;130806;-74
2021/08/14 04:09:13;;;;;;;0.30;0.30;;;14.80;78.10;;;17.57;65.11;102018.72;3190087;30;130698;-74
2021/08/14 04:12:20;;;;;;;0.45;0.45;;;14.80;78.00;;;17.63;64.89;102026.38;3189304;38;130771;-74
2021/08/14 04:15:25;;;;;;;0.47;0.47;;;14.90;78.10;;;17.69;64.91;102021.59;3189768;38;132718;-73
2021/08/14 04:18:33;;;;;;;0.30;0.28;;;14.90;78.00;;;17.74;64.71;102019.53;3190841;30;131508;-74
2021/08/14 04:21:38;;;;;;;0.10;0.10;;;15.00;78.00;;;17.81;64.57;102022.56;3189481;38;130829;-74
2021/08/14 04:24:45;;;;;;;1.95;0.93;;;15.00;78.00;;;17.86;64.46;102016.97;3191425;38;130811;-74
2021/08/14 04:27:50;;;;;;;0.35;0.35;;;15.00;77.90;;;17.90;64.66;102020.66;3190811;30;131098;-74
2021/08/14 04:30:56;;;;;;;0.77;0.77;;;15.10;77.90;;;17.96;64.61;102013.16;3190495;38;130760;-74
2021/08/14 04:34:06;;;;;;;1.60;0.88;;;15.20;77.90;;;18.04;64.13;102013.16;3190772;38;130732;-74
2021/08/14 04:37:13;;;;;;;0.20;0.20;;;15.20;77.80;;;18.14;64.15;102006.59;3189939;38;132229;-74
2021/08/14 04:40:19;;;;;;;0.50;0.50;;;15.30;77.80;;;18.13;64.28;102000.38;3189760;38;130641;-74
2021/08/14 04:43:25;;;;;;;4.82;1.27;;;15.30;77.70;;;18.19;64.41;102004.50;3189475;38;131383;-74
2021/08/14 04:46:30;;;;;;;1.67;0.80;;;15.40;77.70;;;18.28;64.13;102010.75;3189229;38;131033;-74
2021/08/14 04:49:38;;;;;;;0.10;0.10;;;15.50;77.70;;;18.35;63.97;102008.38;3191553;30;130786;-74
2021/08/14 04:52:43;;;;;;;1.08;0.85;;;15.50;77.60;;;18.44;64.00;102019.19;3191063;30;130849;-74
2021/08/14 04:55:49;;;;;;;0.20;0.20;;;15.50;77.60;;;18.53;64.10;102018.03;3192189;30;130780;-74
2021/08/14 04:58:55;;;;;;;1.08;0.77;;;15.60;77.50;;;18.58;63.99;102023.28;3190302;38;130883;-74
2021/08/14 05:02:02;;;;;;;10.30;1.30;;;15.70;77.50;;;18.65;63.67;102020.91;3190387;38;130826;-74
2021/08/14 05:05:13;;;;;;;1.40;0.95;;;15.80;77.40;;;18.73;63.84;102019.25;3190275;38;131493;-74
2021/08/14 05:08:19;;;;;;;2.05;0.90;;;15.80;77.30;;;18.80;63.55;102014.94;3189333;38;131773;-74
2021/08/14 05:11:25;;;;;;;1.63;0.77;;;15.90;77.30;;;18.86;63.74;102002.75;3188750;38;131031;-74
2021/08/14 05:14:31;;;;;;;0.47;0.40;;;16.00;77.20;;;18.95;63.52;102008.97;3189326;38;131410;-74
2021/08/14 05:17:37;;;;;;;0.75;0.75;;;16.00;77.30;;;19.03;63.55;102005.41;3189854;38;131251;-74
2021/08/14 05:20:45;;;;;;;0.10;0.10;;;16.10;77.10;;;19.16;63.08;101999.78;3191239;30;130711;-74
2021/08/14 05:23:51;;;;;;;2.35;0.60;;;16.20;77.20;;;19.29;63.30;102006.09;3186673;38;131011;-74
2021/08/14 05:26:57;;;;;;;31.52;1.02;;;16.30;77.00;;;19.46;62.81;102005.97;3189595;30;132103;-74
2021/08/14 05:30:06;;;;;;;0.55;0.47;;;16.40;76.90;;;19.65;62.57;102000.91;3188716;38;131961;-74
2021/08/14 05:33:12;;;;;;;0.00;0.00;;;16.60;76.80;;;19.94;61.89;102006.25;3189672;38;130788;-74
2021/08/14 05:36:19;;;;;;;0.88;0.75;;;16.80;76.40;;;20.25;61.18;102001.97;3189486;30;130794;-74
2021/08/14 05:39:25;;;;;;;0.25;0.25;;;17.00;76.10;;;20.35;61.35;102003.50;3189746;30;130778;-74
2021/08/14 05:42:31;;;;;;;2.00;1.60;;;17.10;75.90;;;20.25;61.79;102001.19;3189024;38;129666;-74
2021/08/14 05:45:37;;;;;;;0.52;0.52;;;17.20;75.80;;;20.06;62.38;102009.06;3190682;30;130679;-74
2021/08/14 05:48:43;;;;;;;1.17;0.90;;;17.20;75.80;;;20.23;62.19;102004.25;3190446;30;131409;-74
2021/08/14 05:51:50;;;;;;;0.20;0.20;;;17.30;75.90;;;25.48;50.55;101991.78;3188722;38;129775;-75
2021/08/14 05:54:56;;;;;;;0.30;0.30;;;19.30;74.10;;;29.24;44.74;101996.16;3189495;38;130816;-75
2021/08/14 05:58:02;;;;;;;3.85;1.48;;;21.80;71.00;;;31.50;42.81;102001.47;3187289;38;130945;-76
2021/08/14 06:01:09;;;;;;;0.65;0.52;;;24.10;68.70;;;32.51;43.64;101994.59;3188428;38;129664;-76
2021/08/14 06:04:17;;;;;;;1.35;0.55;;;25.70;67.40;;;33.38;44.14;101995.09;3188054;38;130351;-76
2021/08/14 06:07:24;;;;;;;10.77;1.42;;;26.90;66.50;;;33.09;46.18;101985.69;3189387;38;132329;-76
2021/08/14 06:10:30;;;;;;;5.00;1.50;;;27.60;66.60;;;30.67;52.58;101997.53;3189140;38;130498;-76
2021/08/14 06:13:36;;;;;;;2.92;0.63;;;27.00;67.80;;;29.00;56.11;101988.69;3189991;38;131007;-76
2021/08/14 06:16:42;;;;;;;0.40;0.40;;;26.20;69.40;;;28.97;56.13;101995.03;3191049;30;129773;-75
2021/08/14 06:19:47;;;;;;;1.58;0.77;;;25.80;70.90;;;34.23;45.54;101995.69;3190044;38;129664;-76
2021/08/14 06:22:55;;;;;;;0.88;0.70;;;27.40;69.60;;;36.80;42.29;101991.59;3191436;38;130030;-76
2021/08/14 06:26:00;;;;;;;2.83;1.27;;;29.40;67.20;;;36.72;44.63;101988.25;3191936;38;130858;-74
2021/08/14 06:29:09;;;;;;;2.60;0.60;;;30.40;66.50;;;39.78;40.18;101985.47;3192944;38;129748;-75
2021/08/14 06:32:14;;;;;;;4.82;2.33;;;32.00;65.80;;;41.67;38.54;101987.88;3194021;38;131087;-75
2021/08/14 06:35:21;;;;;;;3.53;1.35;;;33.70;64.50;;;37.70;47.80;101982.72;3188216;38;130151;-75
2021/08/14 06:38:28;;;;;;;7.10;1.48;;;33.30;65.30;;;35.43;52.27;101992.25;3187647;38;130261;-74
2021/08/14 06:41:34;;;;;;;0.30;0.30;;;32.30;66.80;;;36.10;50.34;101982.72;3189168;30;130182;-74
2021/08/14 06:44:39;;;;;;;1.70;0.65;;;31.70;68.10;;;39.70;44.05;101981.47;3190388;38;130183;-76
2021/08/14 06:47:46;;;;;;;6.03;0.85;;;32.60;67.40;;;41.96;41.34;101985.03;3189607;38;130278;-76
2021/08/14 06:50:52;;;;;;;9.07;1.90;;;34.20;66.20;;;43.80;39.22;101979.94;3189280;38;130778;-76
2021/08/14 06:54:00;;;;;;;7.22;1.10;;;35.70;65.10;;;44.91;38.33;101992.22;3190662;38;131618;-76
2021/08/14 06:57:08;;;;;;;1.33;1.23;;;37.00;63.60;;;41.45;44.78;101975.44;3189834;38;132775;-76
2021/08/14 07:00:20;;;;;;;0.15;0.15;;;36.60;64.00;;;38.93;49.05;101977.75;3189674;38;130808;-76
2021/08/14 07:03:26;;;;;;;0.47;0.47;;;35.50;64.70;;;37.41;51.60;101983.44;3190436;38;131418;-75
2021/08/14 07:06:32;;;;;;;5.18;1.13;;;34.20;66.50;;;40.71;44.67;101975.72;3190278;38;130837;-76
2021/08/14 07:09:40;;;;;;;0.32;0.32;;;34.40;66.10;;;42.92;40.92;101970.53;3191015;30;130259;-76
2021/08/14 07:12:46;;;;;;;1.33;0.90;;;35.20;65.30;;;44.39;39.02;101959.06;3189234;38;130850;-76
2021/08/14 07:15:52;;;;;;;0.47;0.25;;;36.20;64.30;;;45.60;38.39;101965.88;3190249;38;130635;-76
2021/08/14 07:18:59;;;;;;;4.80;1.55;;;37.20;64.00;;;46.50;37.40;101953.91;3191840;30;130351;-76
2021/08/14 07:22:08;;;;;;;4.85;0.50;;;38.00;64.10;;;47.32;36.93;101950.66;3192095;30;131376;-75
2021/08/14 07:25:16;;;;;;;8.80;1.60;;;38.80;63.40;;;48.14;36.02;101949.16;3189873;38;130304;-76
2021/08/14 07:28:23;;;;;;;14.80;1.65;;;39.50;62.50;;;48.33;36.40;101945.06;3191733;30;131091;-75
2021/08/14 07:31:29;;;;;;;8.13;1.50;;;39.90;61.90;;;48.92;35.91;101948.41;3189091;30;130750;-75
2021/08/14 07:34:35;;;;;;;5.97;2.30;;;40.20;62.10;;;49.42;35.41;101948.47;3187978;38;130215;-75
2021/08/14 07:37:50;;;;;;;2.15;0.60;;;40.60;62.30;;;49.69;34.99;101940.75;3190015;30;131224;-75
2021/08/14 07:40:57;;;;;;;5.28;1.67;;;40.70;61.40;;;49.66;34.76;101928.34;3189526;30;130668;-75
2021/08/14 07:44:03;;;;;;;0.88;0.70;;;40.90;61.10;;;49.28;35.72;101931.84;3190797;30;130356;-75
2021/08/14 07:47:23;;;;;;;0.65;0.65;;;40.70;61.10;;;49.85;35.12;101939.69;3188967;38;133577;-75
2021/08/14 07:50:32;;;;;;;2.70;1.00;;;40.70;61.80;;;50.03;34.49;101939.63;3189739;30;130735;-75
2021/08/14 07:53:38;;;;;;;1.77;0.93;;;40.80;61.60;;;50.14;34.30;101945.09;3190013;38;130745;-75
2021/08/14 07:56:45;;;;;;;0.30;0.28;;;40.70;61.70;;;50.26;34.21;101935.00;3188857;30;129833;-75
2021/08/14 07:59:51;;;;;;;2.63;0.70;;;40.80;61.60;;;49.83;34.18;101936.63;3189885;30;130540;-75
2021/08/14 08:02:57;;;;;;;0.38;0.28;;;40.60;61.10;;;49.92;35.07;101936.19;3187629;38;134709;-75
2021/08/14 08:06:07;;;;;;;3.42;1.27;;;40.40;62.30;;;50.57;34.05;101943.41;3189244;38;129696;-72
2021/08/14 08:09:13;;;;;;;1.15;0.60;;;40.60;62.80;;;50.99;33.89;101941.44;3188688;38;129924;-71
2021/08/14 08:12:20;;;;;;;3.10;1.13;;;40.80;63.00;;;51.24;34.01;101919.81;3189847;38;131230;-71
2021/08/14 08:15:27;;;;;;;0.55;0.52;;;41.00;63.00;;;51.11;33.46;101922.75;3191520;30;129827;-73
2021/08/14 08:18:33;;;;;;;2.55;0.65;;;41.10;62.60;;;50.95;34.12;101936.09;3190499;38;130678;-75
2021/08/14 08:21:40;;;;;;;0.73;0.38;;;41.00;63.00;;;51.14;34.04;101927.38;3188720;38;131247;-75
2021/08/14 08:24:45;;;;;;;2.20;0.77;;;41.00;63.40;;;50.98;33.66;101923.56;3189125;30;129628;-73
2021/08/14 08:27:53;;;;;;;14.68;1.52;;;41.00;63.20;;;50.82;33.87;101915.38;3188512;38;131379;-73
2021/08/14 08:30:59;;;;;;;1.88;0.95;;;40.80;63.50;;;51.05;34.06;101913.56;3188885;38;130720;-73
2021/08/14 08:34:08;;;;;;;0.22;0.22;;;40.80;63.90;;;50.80;34.19;101903.75;3189116;38;130564;-72
2021/08/14 08:37:15;;;;;;;0.22;0.20;;;40.70;63.70;;;50.50;34.29;101906.25;3190002;30;130203;-73
2021/08/14 08:40:22;;;;;;;1.75;0.88;;;40.50;64.10;;;50.71;34.89;101895.63;3188185;38;131726;-71
2021/08/14 08:43:29;;;;;;;1.05;0.50;;;40.50;64.80;;;50.46;34.44;101892.28;3189396;30;130165;-71
2021/08/14 08:46:38;;;;;;;0.28;0.28;;;40.40;64.60;;;50.24;34.75;101891.19;3188880;38;130741;-72
2021/08/14 08:49:55;;;;;;;3.50;1.50;;;40.30;64.90;;;49.68;35.45;101888.66;3188579;30;129946;-72
2021/08/14 08:53:04;;;;;;;2.40;1.13;;;40.10;64.30;;;49.16;35.56;101887.75;3188399;30;130579;-75
2021/08/14 08:56:10;;;;;;;5.43;1.02;;;39.80;64.80;;;48.66;35.98;101882.00;3185873;38;129562;-75
2021/08/14 08:59:17;;;;;;;3.70;0.90;;;39.40;64.90;;;48.29;36.47;101873.44;3188384;38;131449;-73
2021/08/14 09:02:29;;;;;;;4.05;0.63;;;39.00;65.20;;;48.02;36.87;101882.31;3189596;30;132820;-73
2021/08/14 09:05:41;;;;;;;3.28;1.15;;;38.80;65.60;;;48.16;37.42;101881.88;3188741;38;129930;-74
2021/08/14 09:09:11;;;;;;;0.90;0.47;;;38.80;66.30;;;47.99;37.25;101886.22;3190275;38;129676;-75
2021/08/14 09:12:17;;;;;;;1.08;0.85;;;38.80;66.00;;;47.61;38.37;101884.53;3190781;30;130735;-74
2021/08/14 09:15:34;;;;;;;5.05;1.02;;;38.70;66.40;;;47.00;39.11;101879.38;3187382;38;130766;-71
2021/08/14 09:18:56;;;;;;;11.95;1.27;;;38.40;65.90;;;46.66;39.04;101880.06;3189938;38;130038;-74
2021/08/14 09:22:15;;;;;;;0.08;0.08;;;38.00;66.40;;;46.60;39.19;101876.50;3185517;38;131620;-74
2021/08/14 09:25:23;;;;;;;7.03;1.08;;;37.90;67.10;;;45.55;41.17;101876.00;3189060;38;130581;-74
2021/08/14 09:28:37;;;;;;;4.38;0.65;;;37.80;67.70;;;46.25;40.11;101873.56;3189438;38;130090;-74
2021/08/14 09:31:52;;;;;;;8.57;0.85;;;37.70;67.80;;;45.20;42.51;101875.72;3189232;38;130471;-73
2021/08/14 09:34:58;;;;;;;3.60;0.45;;;37.70;67.80;;;45.76;41.69;101879.31;3186949;38;130349;-73
2021/08/14 09:38:10;;;;;;;5.20;1.20;;;37.70;68.20;;;45.32;41.46;101871.59;3187940;30;130574;-73
2021/08/14 09:41:19;;;;;;;1.48;1.13;;;37.60;67.80;;;44.05;43.61;101863.25;3187316;38;130586;-75
2021/08/14 09:44:25;;;;;;;3.47;0.90;;;37.20;68.00;;;43.19;45.54;101871.28;3186795;38;132113;-74
2021/08/14 09:47:36;;;;;;;0.00;0.00;;;36.80;68.50;;;43.24;45.44;101867.78;3188103;30;133060;-75
2021/08/14 09:50:42;;;;;;;2.17;0.90;;;36.80;68.50;;;41.18;49.86;101865.94;3188265;30;130172;-74
2021/08/14 09:53:56;;;;;;;0.70;0.52;;;36.60;68.80;;;41.64;48.33;101870.56;3188043;30;129667;-74
2021/08/14 09:57:16;;;;;;;0.10;0.10;;;36.30;68.50;;;41.66;49.04;101873.69;3186858;31;131179;-76
2021/08/14 10:00:22;;;;;;;3.75;0.43;;;36.30;68.80;;;41.59;49.01;101871.25;3186324;38;130453;-75
2021/08/14 10:03:33;;;;;;;3.72;1.20;;;36.40;69.10;;;40.20;52.06;101865.50;3189095;30;131669;-73
2021/08/14 10:06:40;;;;;;;0.70;0.55;;;36.30;68.90;;;39.32;53.31;101884.25;3191445;30;130788;-71
2021/08/14 10:09:49;;;;;;;6.78;1.00;;;35.90;69.10;;;38.09;55.53;101877.63;3190679;38;129883;-74
2021/08/14 10:13:00;;;;;;;0.28;0.22;;;35.30;69.10;;;38.18;54.93;101875.63;3190991;30;130705;-73
2021/08/14 10:16:10;;;;;;;1.07;0.83;;;34.90;69.60;;;37.27;56.44;101870.06;3188806;38;131358;-74
2021/08/14 10:19:17;;;;;;;3.72;0.22;;;34.40;69.80;;;36.85;56.98;101879.22;3189500;38;131563;-72
2021/08/14 10:22:27;;;;;;;0.70;0.47;;;34.00;70.30;;;36.63;56.85;101868.03;3189902;30;130897;-73
2021/08/14 10:25:37;;;;;;;0.20;0.10;;;33.60;70.60;;;36.68;56.59;101866.69;3188520;30;129734;-72
2021/08/14 10:28:47;;;;;;;3.25;0.63;;;33.40;70.80;;;35.33;58.29;101870.63;3190384;30;129709;-71
2021/08/14 10:31:53;;;;;;;1.42;0.52;;;33.00;70.60;;;35.11;58.55;101864.06;3189545;30;130027;-75
2021/08/14 10:35:40;;;;;;;0.35;0.35;;;32.40;71.10;;;34.80;58.16;101860.19;3190060;30;130809;-75
2021/08/14 10:38:50;;;;;;;0.63;0.55;;;32.00;71.00;;;34.81;57.67;101870.09;3188274;38;131358;-73
2021/08/14 10:41:58;;;;;;;7.13;1.27;;;31.80;71.40;;;35.96;55.66;101863.09;3189177;30;130779;-73
2021/08/14 10:45:17;;;;;;;5.18;1.80;;;31.90;71.50;;;36.77;53.68;101855.56;3188490;38;130568;-75
2021/08/14 10:48:57;;;;;;;0.25;0.25;;;32.40;70.70;;;35.84;54.73;101855.53;3187051;38;131318;-72
2021/08/14 10:52:19;;;;;;;1.55;0.82;;;32.30;69.70;;;35.01;56.39;101865.16;3187551;30;130799;-72
2021/08/14 10:55:37;;;;;;;2.20;0.50;;;31.90;69.90;;;34.54;57.04;101863.28;3189253;38;129921;-71
2021/08/14 10:58:43;;;;;;;0.43;0.40;;;31.60;70.40;;;35.11;55.29;101857.72;3188277;38;129916;-72
2021/08/14 11:01:49;;;;;;;0.13;0.13;;;31.50;70.80;;;35.53;55.00;101862.84;3189720;30;129792;-73
2021/08/14 11:05:01;;;;;;;5.97;0.65;;;31.70;70.60;;;35.61;54.06;101857.88;3189309;30;129857;-72
2021/08/14 11:08:34;;;;;;;1.15;0.25;;;31.70;70.10;;;35.05;55.00;101854.69;3189772;30;130729;-72
2021/08/14 11:11:40;;;;;;;2.25;0.73;;;31.60;69.60;;;34.55;55.59;101859.28;3188097;38;130778;-74
2021/08/14 11:14:49;;;;;;;0.25;0.25;;;31.50;69.70;;;34.49;55.87;101855.47;3187782;38;130962;-73
2021/08/14 11:17:59;;;;;;;7.82;1.13;;;31.20;69.90;;;34.74;55.41;101856.38;3189116;38;130929;-73
2021/08/14 11:21:12;;;;;;;3.35;1.35;;;31.20;70.10;;;35.25;53.56;101857.34;3187286;38;130826;-73
2021/08/14 11:24:38;;;;;;;0.93;0.70;;;31.20;69.90;;;35.80;52.64;101849.28;3189052;30;131261;-73
2021/08/14 11:27:57;;;;;;;3.13;0.60;;;31.60;69.00;;;36.01;51.96;101838.19;3186848;30;131063;-72
2021/08/14 11:31:07;;;;;;;2.67;0.90;;;31.90;68.50;;;36.22;51.34;101842.31;3188243;38;130826;-72
2021/08/14 11:34:15;;;;;;;7.13;1.42;;;32.10;68.50;;;36.41;51.28;101844.81;3188561;38;129792;-73
2021/08/14 11:37:24;;;;;;;12.05;0.68;;;32.30;68.50;;;36.20;52.17;101845.56;3187741;38;131101;-72
2021/08/14 11:40:33;;;;;;;7.22;1.15;;;32.30;68.10;;;36.36;51.37;101855.81;3190079;38;130165;-72
2021/08/14 11:43:44;;;;;;;4.18;1.08;;;32.30;68.10;;;36.00;52.43;101847.00;3192937;30;129849;-73
2021/08/14 11:46:49;;;;;;;0.47;0.47;;;32.30;68.10;;;35.85;52.29;101853.50;3197746;38;129440;-72
2021/08/14 11:50:00;;;;;;;7.47;0.73;;;32.20;68.20;;;35.82;52.38;101852.41;3191028;30;131581;-74
2021/08/14 11:53:13;;;;;;;1.13;0.57;;;32.30;67.80;;;34.84;54.07;101852.53;3186890;38;129380;-71
2021/08/14 11:56:20;;;;;;;0.50;0.50;;;31.90;67.90;;;34.77;54.44;101857.50;3185248;38;130746;-72
2021/08/14 11:59:33;;;;;;;0.17;0.17;;;31.60;68.10;;;34.38;54.35;101858.50;3186608;30;130910;-71
2021/08/14 12:02:40;;;;;;;0.57;0.52;;;31.40;68.20;;;33.54;55.85;101856.16;3187139;38;130259;-69
2021/08/14 12:05:49;;;;;;;18.08;1.08;;;31.00;68.20;;;32.60;57.76;101850.50;3188571;30;134056;-70
2021/08/14 12:09:00;;;;;;;1.67;0.98;;;30.50;68.60;;;31.91;58.45;101849.66;3187172;38;130743;-70
2021/08/14 12:12:09;;;;;;;1.27;0.88;;;29.90;69.00;;;31.71;58.54;101855.13;3187831;30;130693;-70
2021/08/14 12:15:17;;;;;;;0.40;0.40;;;29.50;69.20;;;31.43;58.14;101857.47;3190191;30;129797;-70
2021/08/14 12:18:37;;;;;;;0.30;0.28;;;29.10;69.50;;;31.89;57.42;101849.31;3188857;38;130054;-70
2021/08/14 12:21:43;;;;;;;1.40;0.80;;;28.90;69.80;;;32.15;56.40;101849.28;3188706;30;129848;-70
2021/08/14 12:24:52;;;;;;;4.30;0.43;;;29.00;70.00;;;32.33;55.37;101846.25;3188381;38;130903;-71
2021/08/14 12:28:11;;;;;;;0.17;0.17;;;29.00;69.70;;;32.61;54.70;101849.28;3189439;38;134964;-72
2021/08/14 12:31:21;;;;;;;13.73;2.10;;;29.20;69.40;;;32.46;54.80;101845.22;3189515;38;130364;-73
2021/08/14 12:34:33;;;;;;;0.57;0.57;;;29.30;69.00;;;32.29;55.26;101851.84;3187896;30;131667;-72
2021/08/14 12:37:39;;;;;;;2.10;0.65;;;29.30;68.60;;;32.42;54.82;101858.34;3187861;38;130334;-72
2021/08/14 12:40:47;;;;;;;0.88;0.75;;;29.30;68.70;;;32.73;53.94;101849.47;3188306;38;129907;-73
2021/08/14 12:43:54;;;;;;;23.23;1.63;;;29.30;68.40;;;33.14;53.09;101849.06;3190505;30;131138;-74
2021/08/14 12:47:07;;;;;;;1.35;0.85;;;29.50;68.10;;;33.39;52.56;101850.13;3189443;38;129868;-74
2021/08/14 12:50:28;;;;;;;3.40;0.90;;;29.80;67.90;;;33.23;53.70;101846.50;3189964;30;129770;-74
2021/08/14 12:53:34;;;;;;;6.85;0.60;;;29.90;67.70;;;33.00;53.73;101841.78;3190030;30;131729;-73